createdAt,value
2022-09-13T00:00:18.248Z,7.2
2022-09-13T00:01:26.622Z,7.2
2022-09-13T00:02:34.901Z,7.2
2022-09-13T00:03:43.456Z,7.1
2022-09-13T00:04:51.779Z,7.1
2022-09-13T00:06:00.222Z,7.1
2022-09-13T00:07:08.660Z,7.4
2022-09-13T00:08:17.004Z,7.4
2022-09-13T00:09:25.343Z,7.4
2022-09-13T00:10:33.902Z,7.7
2022-09-13T00:11:42.226Z,7.7
2022-09-13T00:12:50.542Z,7.7
2022-09-13T00:13:59.083Z,8.5
2022-09-13T00:15:07.419Z,8.5
2022-09-13T00:16:15.819Z,8.5
2022-09-13T00:17:24.266Z,7.7
2022-09-13T00:18:32.605Z,7.7
2022-09-13T00:19:40.930Z,7.7
2022-09-13T00:20:49.453Z,8.4
2022-09-13T00:21:57.820Z,8.4
2022-09-13T00:23:06.140Z,8.4
2022-09-13T00:24:14.687Z,7.7
2022-09-13T00:25:23.014Z,7.7
2022-09-13T00:26:31.349Z,7.7
2022-09-13T00:27:39.878Z,7.6
2022-09-13T00:28:48.294Z,7.6
2022-09-13T00:29:56.535Z,7.6
2022-09-13T00:31:05.062Z,8.9
2022-09-13T00:32:13.394Z,8.9
2022-09-13T00:33:21.721Z,8.9
2022-09-13T00:34:30.263Z,7.8
2022-09-13T00:35:38.581Z,7.8
2022-09-13T00:36:46.929Z,7.8
2022-09-13T00:37:55.584Z,7.9
2022-09-13T00:39:03.791Z,7.9
2022-09-13T00:40:12.125Z,7.9
2022-09-13T00:41:20.642Z,9.4
2022-09-13T00:42:28.964Z,9.4
2022-09-13T00:43:37.313Z,9.4
2022-09-13T00:44:45.844Z,8.1
2022-09-13T00:45:54.211Z,8.1
2022-09-13T00:47:02.473Z,8.1
2022-09-13T00:48:11.014Z,7.7
2022-09-13T00:49:19.347Z,7.7
2022-09-13T00:50:27.661Z,7.7
2022-09-13T00:51:36.188Z,8.7
2022-09-13T00:52:46.733Z,8.7
2022-09-13T00:53:52.936Z,8.7
2022-09-13T00:55:01.370Z,8.7
2022-09-13T00:56:09.710Z,8.7
2022-09-13T00:57:18.045Z,8.7
2022-09-13T00:58:26.598Z,9.3
2022-09-13T00:59:34.919Z,9.3
2022-09-13T01:00:43.277Z,9.3
2022-09-13T01:01:51.848Z,8.9
2022-09-13T01:03:00.166Z,8.9
2022-09-13T01:04:12.011Z,8.9
2022-09-13T01:05:17.057Z,7.8
2022-09-13T01:06:25.367Z,7.8
2022-09-13T01:07:33.697Z,7.8
2022-09-13T01:08:42.246Z,8.5
2022-09-13T01:09:50.589Z,8.5
2022-09-13T01:10:58.878Z,8.5
2022-09-13T01:12:07.401Z,8.7
2022-09-13T01:13:15.719Z,8.7
2022-09-13T01:14:24.055Z,8.7
2022-09-13T01:15:32.590Z,8.5
2022-09-13T01:16:42.966Z,8.5
2022-09-13T01:17:49.255Z,8.5
2022-09-13T01:18:57.798Z,8.5
2022-09-13T01:20:06.128Z,8.5
2022-09-13T01:21:14.473Z,8.5
2022-09-13T01:22:23.022Z,8.7
2022-09-13T01:23:31.355Z,8.7
2022-09-13T01:24:39.686Z,8.7
2022-09-13T01:25:48.265Z,7.5
2022-09-13T01:26:56.576Z,7.5
2022-09-13T01:28:04.922Z,7.5
2022-09-13T01:29:13.452Z,9.5
2022-09-13T01:30:21.790Z,9.5
2022-09-13T01:31:30.123Z,9.5
2022-09-13T01:32:38.671Z,9.1
2022-09-13T01:33:47.019Z,9.1
2022-09-13T01:34:55.347Z,9.1
2022-09-13T01:36:03.893Z,9.5
2022-09-13T01:37:12.228Z,9.5
2022-09-13T01:38:20.550Z,9.5
2022-09-13T01:39:29.076Z,7.9
2022-09-13T01:40:37.399Z,7.9
2022-09-13T01:41:45.766Z,7.9
2022-09-13T01:42:54.275Z,9.2
2022-09-13T01:44:02.628Z,9.2
2022-09-13T01:45:10.946Z,9.2
2022-09-13T01:46:19.476Z,8.5
2022-09-13T01:47:27.804Z,8.5
2022-09-13T01:48:36.138Z,8.5
2022-09-13T01:49:44.669Z,10.3
2022-09-13T01:50:53.001Z,10.3
2022-09-13T01:52:01.335Z,10.3
2022-09-13T01:53:09.873Z,9.3
2022-09-13T01:54:18.220Z,9.3
2022-09-13T01:55:26.529Z,9.3
2022-09-13T01:56:35.058Z,9
2022-09-13T01:57:43.400Z,9
2022-09-13T01:58:51.709Z,9
2022-09-13T02:00:00.247Z,8.5
2022-09-13T02:01:08.666Z,8.5
2022-09-13T02:02:16.995Z,8.5
2022-09-13T02:03:25.443Z,8.7
2022-09-13T02:04:33.782Z,8.7
2022-09-13T02:05:42.117Z,8.7
2022-09-13T02:06:50.660Z,10.8
2022-09-13T02:07:58.984Z,10.8
2022-09-13T02:09:07.323Z,10.8
2022-09-13T02:10:15.861Z,9
2022-09-13T02:11:24.203Z,9
2022-09-13T02:12:32.530Z,9
2022-09-13T02:13:41.195Z,9.4
2022-09-13T02:14:49.417Z,9.4
2022-09-13T02:15:57.745Z,9.4
2022-09-13T02:17:06.272Z,8.8
2022-09-13T02:18:14.606Z,8.8
2022-09-13T02:19:22.950Z,8.8
2022-09-13T02:20:31.497Z,9.7
2022-09-13T02:21:39.818Z,9.7
2022-09-13T02:22:48.174Z,9.7
2022-09-13T02:23:56.704Z,9.1
2022-09-13T02:25:05.039Z,9.1
2022-09-13T02:26:13.365Z,9.1
2022-09-13T02:27:21.924Z,9.7
2022-09-13T02:28:30.266Z,9.7
2022-09-13T02:29:38.635Z,9.7
2022-09-13T02:30:47.165Z,10.7
2022-09-13T02:31:55.547Z,10.7
2022-09-13T02:33:03.838Z,10.7
2022-09-13T02:34:12.370Z,10.2
2022-09-13T02:35:20.735Z,10.2
2022-09-13T02:36:29.077Z,10.2
2022-09-13T02:37:37.617Z,10
2022-09-13T02:38:45.974Z,10
2022-09-13T02:39:54.376Z,10
2022-09-13T02:41:02.829Z,10.3
2022-09-13T02:42:12.541Z,10.3
2022-09-13T02:43:19.532Z,10.3
2022-09-13T02:44:28.146Z,10
2022-09-13T02:45:36.507Z,10
2022-09-13T02:46:44.770Z,10
2022-09-13T02:47:53.299Z,10.2
2022-09-13T02:49:01.631Z,10.2
2022-09-13T02:50:09.973Z,10.2
2022-09-13T02:51:18.516Z,10.2
2022-09-13T02:52:26.840Z,10.2
2022-09-13T02:53:35.150Z,10.2
2022-09-13T02:54:43.690Z,10.1
2022-09-13T02:55:52.017Z,10.1
2022-09-13T02:57:00.352Z,10.1
2022-09-13T02:58:08.903Z,10.9
2022-09-13T02:59:17.334Z,10.9
2022-09-13T03:00:25.600Z,10.9
2022-09-13T03:01:34.277Z,10.2
2022-09-13T03:02:42.501Z,10.2
2022-09-13T03:03:50.831Z,10.2
2022-09-13T03:04:59.386Z,11.9
2022-09-13T03:06:07.706Z,11.9
2022-09-13T03:07:16.035Z,11.9
2022-09-13T03:08:24.576Z,11.3
2022-09-13T03:09:32.935Z,11.3
2022-09-13T03:10:41.252Z,11.3
2022-09-13T03:11:49.781Z,10.9
2022-09-13T03:12:58.094Z,10.9
2022-09-13T03:14:06.431Z,10.9
2022-09-13T03:15:14.964Z,9.8
2022-09-13T03:16:23.286Z,9.8
2022-09-13T03:17:31.731Z,9.8
2022-09-13T03:18:40.158Z,11
2022-09-13T03:19:48.489Z,11
2022-09-13T03:20:56.817Z,11
2022-09-13T03:22:05.351Z,11.2
2022-09-13T03:23:13.693Z,11.2
2022-09-13T03:24:22.060Z,11.2
2022-09-13T03:25:30.594Z,11.3
2022-09-13T03:26:38.933Z,11.3
2022-09-13T03:27:47.252Z,11.3
2022-09-13T03:28:55.789Z,10.9
2022-09-13T03:30:04.127Z,10.9
2022-09-13T03:31:12.462Z,10.9
2022-09-13T03:32:21.007Z,10.6
2022-09-13T03:33:29.406Z,10.6
2022-09-13T03:34:37.699Z,10.6
2022-09-13T03:35:46.259Z,11.6
2022-09-13T03:36:54.608Z,11.6
2022-09-13T03:38:02.951Z,11.6
2022-09-13T03:39:14.905Z,10.5
2022-09-13T03:40:19.872Z,10.5
2022-09-13T03:41:28.191Z,10.5
2022-09-13T03:42:36.751Z,10.2
2022-09-13T03:43:45.100Z,10.2
2022-09-13T03:44:53.449Z,10.2
2022-09-13T03:46:02.144Z,10.8
2022-09-13T03:47:10.439Z,10.8
2022-09-13T03:48:19.258Z,10.8
2022-09-13T03:49:27.839Z,9.5
2022-09-13T03:50:36.156Z,9.5
2022-09-13T03:51:44.494Z,9.5
2022-09-13T03:52:53.029Z,11.5
2022-09-13T03:54:02.316Z,11.5
2022-09-13T03:55:10.672Z,11.5
2022-09-13T03:56:19.221Z,9.8
2022-09-13T03:57:27.559Z,9.8
2022-09-13T03:58:35.902Z,9.8
2022-09-13T03:59:44.457Z,9.4
2022-09-13T04:00:52.806Z,9.4
2022-09-13T04:02:01.152Z,9.4
2022-09-13T04:03:09.664Z,9.8
2022-09-13T04:04:18.020Z,9.8
2022-09-13T04:05:26.469Z,9.8
2022-09-13T04:06:34.911Z,9.6
2022-09-13T04:07:43.238Z,9.6
2022-09-13T04:08:51.589Z,9.6
2022-09-13T04:10:00.171Z,9.6
2022-09-13T04:11:08.470Z,9.6
2022-09-13T04:12:16.813Z,9.6
2022-09-13T04:13:25.341Z,9.4
2022-09-13T04:14:33.780Z,9.4
2022-09-13T04:15:42.065Z,9.4
2022-09-13T04:16:50.608Z,9.9
2022-09-13T04:17:58.946Z,9.9
2022-09-13T04:19:07.289Z,9.9
2022-09-13T04:20:15.833Z,11.9
2022-09-13T04:21:24.197Z,11.9
2022-09-13T04:22:32.520Z,11.9
2022-09-13T04:23:41.048Z,9.6
2022-09-13T04:24:49.367Z,9.6
2022-09-13T04:25:57.690Z,9.6
2022-09-13T04:27:06.224Z,10.4
2022-09-13T04:28:14.550Z,10.4
2022-09-13T04:29:22.873Z,10.4
2022-09-13T04:30:31.405Z,9.5
2022-09-13T04:31:39.784Z,9.5
2022-09-13T04:32:48.074Z,9.5
2022-09-13T04:33:56.642Z,11
2022-09-13T04:35:04.995Z,11
2022-09-13T04:36:13.332Z,11
2022-09-13T04:37:21.884Z,11
2022-09-13T04:38:30.187Z,11
2022-09-13T04:39:38.554Z,11
2022-09-13T04:40:47.103Z,9.3
2022-09-13T04:41:55.439Z,9.3
2022-09-13T04:43:03.780Z,9.3
2022-09-13T04:44:12.338Z,11.2
2022-09-13T04:45:20.671Z,11.2
2022-09-13T04:46:29.018Z,11.2
2022-09-13T04:47:37.563Z,12
2022-09-13T04:48:45.919Z,12
2022-09-13T04:49:54.261Z,12
2022-09-13T04:51:02.793Z,9.8
2022-09-13T04:52:11.111Z,9.8
2022-09-13T04:53:19.543Z,9.8
2022-09-13T04:54:28.001Z,10.1
2022-09-13T04:55:36.330Z,10.1
2022-09-13T04:56:44.656Z,10.1
2022-09-13T04:57:53.215Z,10
2022-09-13T04:59:01.579Z,10
2022-09-13T05:00:09.923Z,10
2022-09-13T05:01:18.542Z,10.4
2022-09-13T05:02:26.864Z,10.4
2022-09-13T05:03:35.157Z,10.4
2022-09-13T05:04:43.716Z,11.4
2022-09-13T05:05:52.036Z,11.4
2022-09-13T05:07:00.367Z,11.4
2022-09-13T05:08:08.902Z,10.4
2022-09-13T05:09:17.317Z,10.4
2022-09-13T05:10:25.545Z,10.4
2022-09-13T05:11:34.106Z,9.6
2022-09-13T05:12:42.426Z,9.6
2022-09-13T05:13:50.793Z,9.6
2022-09-13T05:14:59.334Z,10.8
2022-09-13T05:16:07.708Z,10.8
2022-09-13T05:17:16.000Z,10.8
2022-09-13T05:18:24.548Z,13
2022-09-13T05:19:32.911Z,13
2022-09-13T05:20:41.261Z,13
2022-09-13T05:21:49.821Z,10.5
2022-09-13T05:22:58.155Z,10.5
2022-09-13T05:24:06.490Z,10.5
2022-09-13T05:25:15.068Z,11.1
2022-09-13T05:26:23.410Z,11.1
2022-09-13T05:27:31.742Z,11.1
2022-09-13T05:28:40.304Z,10.3
2022-09-13T05:29:48.656Z,10.3
2022-09-13T05:30:57.045Z,10.3
2022-09-13T05:32:05.555Z,10.7
2022-09-13T05:33:13.891Z,10.7
2022-09-13T05:34:22.230Z,10.7
2022-09-13T05:35:30.766Z,10.9
2022-09-13T05:36:39.098Z,10.9
2022-09-13T05:37:47.443Z,10.9
2022-09-13T05:39:12.497Z,10.3
2022-09-13T05:40:12.624Z,10.3
2022-09-13T05:41:12.703Z,10.3
2022-09-13T05:42:21.207Z,9.6
2022-09-13T05:43:29.547Z,9.6
2022-09-13T05:44:37.898Z,9.6
2022-09-13T05:45:46.509Z,8.9
2022-09-13T05:46:54.790Z,8.9
2022-09-13T05:48:03.123Z,8.9
2022-09-13T05:49:11.670Z,9.8
2022-09-13T05:50:44.975Z,9.8
2022-09-13T05:51:28.332Z,9.8
2022-09-13T05:52:36.864Z,8.3
2022-09-13T05:53:45.210Z,8.3
2022-09-13T05:54:53.534Z,8.3
2022-09-13T05:56:02.094Z,8.9
2022-09-13T05:57:10.449Z,8.9
2022-09-13T05:58:18.749Z,8.9
2022-09-13T05:59:27.352Z,9.2
2022-09-13T06:00:35.687Z,9.2
2022-09-13T06:01:44.077Z,9.2
2022-09-13T06:02:52.616Z,10.3
2022-09-13T06:04:00.907Z,10.3
2022-09-13T06:05:09.258Z,10.3
2022-09-13T06:06:17.793Z,9.3
2022-09-13T06:07:26.135Z,9.3
2022-09-13T06:08:34.497Z,9.3
2022-09-13T06:09:43.025Z,8.5
2022-09-13T06:10:51.341Z,8.5
2022-09-13T06:11:59.690Z,8.5
2022-09-13T06:13:08.266Z,8.8
2022-09-13T06:14:16.611Z,8.8
2022-09-13T06:15:24.941Z,8.8
2022-09-13T06:16:33.571Z,10.7
2022-09-13T06:17:41.902Z,10.7
2022-09-13T06:18:50.481Z,10.7
2022-09-13T06:19:58.765Z,8.1
2022-09-13T06:21:07.091Z,8.1
2022-09-13T06:22:15.412Z,8.1
2022-09-13T06:23:23.946Z,8.6
2022-09-13T06:24:32.272Z,8.6
2022-09-13T06:25:40.599Z,8.6
2022-09-13T06:26:49.118Z,9.5
2022-09-13T06:27:57.445Z,9.5
2022-09-13T06:29:05.801Z,9.5
2022-09-13T06:30:14.328Z,7.9
2022-09-13T06:31:22.711Z,7.9
2022-09-13T06:32:30.991Z,7.9
2022-09-13T06:33:39.523Z,8
2022-09-13T06:34:47.857Z,8
2022-09-13T06:35:56.176Z,8
2022-09-13T06:37:04.693Z,8.8
2022-09-13T06:38:13.015Z,8.8
2022-09-13T06:39:21.357Z,8.8
2022-09-13T06:40:30.076Z,8.3
2022-09-13T06:41:38.220Z,8.3
2022-09-13T06:42:46.521Z,8.3
2022-09-13T06:43:55.065Z,8.4
2022-09-13T06:45:03.434Z,8.4
2022-09-13T06:46:11.723Z,8.4
2022-09-13T06:47:20.238Z,8.6
2022-09-13T06:48:28.559Z,8.6
2022-09-13T06:49:36.886Z,8.6
2022-09-13T06:50:45.413Z,7.3
2022-09-13T06:51:53.736Z,7.3
2022-09-13T06:53:02.058Z,7.3
2022-09-13T06:54:10.602Z,8.3
2022-09-13T06:55:18.906Z,8.3
2022-09-13T06:56:27.311Z,8.3
2022-09-13T06:57:35.846Z,7.5
2022-09-13T06:58:44.224Z,7.5
2022-09-13T06:59:52.539Z,7.5
2022-09-13T07:01:01.247Z,7.5
2022-09-13T07:02:09.493Z,7.5
2022-09-13T07:03:17.797Z,7.5
2022-09-13T07:04:26.334Z,7.6
2022-09-13T07:05:34.700Z,7.6
2022-09-13T07:06:43.029Z,7.6
2022-09-13T07:07:51.559Z,7
2022-09-13T07:08:59.888Z,7
2022-09-13T07:10:08.211Z,7
2022-09-13T07:11:16.750Z,7.4
2022-09-13T07:12:25.073Z,7.4
2022-09-13T07:13:33.414Z,7.4
2022-09-13T07:14:41.951Z,6.8
2022-09-13T07:15:50.310Z,6.8
2022-09-13T07:16:58.629Z,6.8
2022-09-13T07:18:07.143Z,7.2
2022-09-13T07:19:15.505Z,7.2
2022-09-13T07:20:23.873Z,7.2
2022-09-13T07:21:32.373Z,7
2022-09-13T07:22:40.701Z,7
2022-09-13T07:23:49.047Z,7
2022-09-13T07:24:57.593Z,7.8
2022-09-13T07:26:05.912Z,7.8
2022-09-13T07:27:14.228Z,7.8
2022-09-13T07:28:24.517Z,8.6
2022-09-13T07:29:31.128Z,8.6
2022-09-13T07:30:39.455Z,8.6
2022-09-13T07:31:48.101Z,6.9
2022-09-13T07:32:56.430Z,6.9
2022-09-13T07:34:04.730Z,6.9
2022-09-13T07:35:13.257Z,6.8
2022-09-13T07:36:21.577Z,6.8
2022-09-13T07:37:29.893Z,6.8
2022-09-13T07:38:38.474Z,7.3
2022-09-13T07:39:46.784Z,7.3
2022-09-13T07:40:55.083Z,7.3
2022-09-13T07:42:03.614Z,8.4
2022-09-13T07:43:11.951Z,8.4
2022-09-13T07:44:20.263Z,8.4
2022-09-13T07:45:28.800Z,6.7
2022-09-13T07:46:37.153Z,6.7
2022-09-13T07:47:45.481Z,6.7
2022-09-13T07:48:54.154Z,7.4
2022-09-13T07:50:02.382Z,7.4
2022-09-13T07:51:10.720Z,7.4
2022-09-13T07:52:19.258Z,8.5
2022-09-13T07:53:27.587Z,8.5
2022-09-13T07:54:35.908Z,8.5
2022-09-13T07:55:44.425Z,8.4
2022-09-13T07:56:52.768Z,8.4
2022-09-13T07:58:01.093Z,8.4
2022-09-13T07:59:09.655Z,7.9
2022-09-13T08:00:17.980Z,7.9
2022-09-13T08:01:26.434Z,7.9
2022-09-13T08:02:34.957Z,9.4
2022-09-13T08:03:43.225Z,9.4
2022-09-13T08:04:51.566Z,9.4
2022-09-13T08:06:00.087Z,8.2
2022-09-13T08:07:08.406Z,8.2
2022-09-13T08:08:16.767Z,8.2
2022-09-13T08:09:25.316Z,9.9
2022-09-13T08:10:33.668Z,9.9
2022-09-13T08:11:42.007Z,9.9
2022-09-13T08:12:50.548Z,9.4
2022-09-13T08:13:58.910Z,9.4
2022-09-13T08:15:07.237Z,9.4
2022-09-13T08:16:15.833Z,9.6
2022-09-13T08:17:24.136Z,9.6
2022-09-13T08:18:32.457Z,9.6
2022-09-13T08:19:40.987Z,7.7
2022-09-13T08:20:49.346Z,7.7
2022-09-13T08:21:57.681Z,7.7
2022-09-13T08:23:06.231Z,7.8
2022-09-13T08:24:14.580Z,7.8
2022-09-13T08:25:22.887Z,7.8
2022-09-13T08:26:31.465Z,8.4
2022-09-13T08:27:39.790Z,8.4
2022-09-13T08:28:48.121Z,8.4
2022-09-13T08:29:56.658Z,6.8
2022-09-13T08:31:05.101Z,6.8
2022-09-13T08:32:13.356Z,6.8
2022-09-13T08:33:21.910Z,6.7
2022-09-13T08:34:30.251Z,6.7
2022-09-13T08:35:38.567Z,6.7
2022-09-13T08:36:47.108Z,7
2022-09-13T08:37:55.423Z,7
2022-09-13T08:39:03.769Z,7
2022-09-13T08:40:12.327Z,6.9
2022-09-13T08:41:20.628Z,6.9
2022-09-13T08:42:28.949Z,6.9
2022-09-13T08:43:37.490Z,7.6
2022-09-13T08:44:45.818Z,7.6
2022-09-13T08:45:54.239Z,7.6
2022-09-13T08:47:02.730Z,5.6
2022-09-13T08:48:11.038Z,5.6
2022-09-13T08:49:19.375Z,5.6
2022-09-13T08:50:27.902Z,6.7
2022-09-13T08:51:36.274Z,6.7
2022-09-13T08:52:44.614Z,6.7
2022-09-13T08:53:53.171Z,6.5
2022-09-13T08:55:01.508Z,6.5
2022-09-13T08:56:09.844Z,6.5
2022-09-13T08:57:18.412Z,5.7
2022-09-13T08:58:26.747Z,5.7
2022-09-13T08:59:35.101Z,5.7
2022-09-13T09:00:43.642Z,6.2
2022-09-13T09:01:51.973Z,6.2
2022-09-13T09:03:00.309Z,6.2
2022-09-13T09:04:08.834Z,5.1
2022-09-13T09:05:17.139Z,5.1
2022-09-13T09:06:25.454Z,5.1
2022-09-13T09:07:34.013Z,5.3
2022-09-13T09:08:42.376Z,5.3
2022-09-13T09:09:50.722Z,5.3
2022-09-13T09:10:59.258Z,5.8
2022-09-13T09:12:07.577Z,5.8
2022-09-13T09:13:15.908Z,5.8
2022-09-13T09:14:24.442Z,8
2022-09-13T09:15:32.813Z,8
2022-09-13T09:16:41.090Z,8
2022-09-13T09:17:49.633Z,7.3
2022-09-13T09:18:57.975Z,7.3
2022-09-13T09:20:06.309Z,7.3
2022-09-13T09:21:14.851Z,6.1
2022-09-13T09:22:23.170Z,6.1
2022-09-13T09:23:31.491Z,6.1
2022-09-13T09:24:40.048Z,7.5
2022-09-13T09:25:48.355Z,7.5
2022-09-13T09:26:56.674Z,7.5
2022-09-13T09:28:05.216Z,8.7
2022-09-13T09:29:13.533Z,8.7
2022-09-13T09:30:21.887Z,8.7
2022-09-13T09:31:30.426Z,6.2
2022-09-13T09:32:38.764Z,6.2
2022-09-13T09:33:47.096Z,6.2
2022-09-13T09:34:55.617Z,8.2
2022-09-13T09:36:03.944Z,8.2
2022-09-13T09:37:12.258Z,8.2
2022-09-13T09:38:20.802Z,6.7
2022-09-13T09:39:29.118Z,6.7
2022-09-13T09:40:37.528Z,6.7
2022-09-13T09:41:46.016Z,7.2
2022-09-13T09:42:54.349Z,7.2
2022-09-13T09:44:02.680Z,7.2
2022-09-13T09:45:11.214Z,6.6
2022-09-13T09:46:19.607Z,6.6
2022-09-13T09:47:29.519Z,6.6
2022-09-13T09:48:36.441Z,8.3
2022-09-13T09:49:44.764Z,8.3
2022-09-13T09:50:53.083Z,8.3
2022-09-13T09:52:01.651Z,7.3
2022-09-13T09:53:09.996Z,7.3
2022-09-13T09:54:18.532Z,7.3
2022-09-13T09:55:27.057Z,6.5
2022-09-13T09:56:35.487Z,6.5
2022-09-13T09:57:43.694Z,6.5
2022-09-13T09:58:52.238Z,6.3
2022-09-13T10:00:00.582Z,6.3
2022-09-13T10:01:11.309Z,6.3
2022-09-13T10:02:17.541Z,7.7
2022-09-13T10:03:25.784Z,7.7
2022-09-13T10:04:34.103Z,7.7
2022-09-13T10:05:42.660Z,6.2
2022-09-13T10:06:50.978Z,6.2
2022-09-13T10:07:59.341Z,6.2
2022-09-13T10:09:07.909Z,6.5
2022-09-13T10:10:16.237Z,6.5
2022-09-13T10:11:24.576Z,6.5
2022-09-13T10:12:33.133Z,6
2022-09-13T10:13:41.534Z,6
2022-09-13T10:14:49.813Z,6
2022-09-13T10:15:58.349Z,6.2
2022-09-13T10:17:06.652Z,6.2
2022-09-13T10:18:33.289Z,6.2
2022-09-13T10:19:23.517Z,6
2022-09-13T10:20:31.843Z,6
2022-09-13T10:21:40.163Z,6
2022-09-13T10:22:48.715Z,8.2
2022-09-13T10:23:57.060Z,8.2
2022-09-13T10:25:05.385Z,8.2
2022-09-13T10:26:13.900Z,6.7
2022-09-13T10:27:22.226Z,6.7
2022-09-13T10:28:30.580Z,6.7
2022-09-13T10:29:39.102Z,6.6
2022-09-13T10:30:47.491Z,6.6
2022-09-13T10:31:55.754Z,6.6
2022-09-13T10:33:04.304Z,6.3
2022-09-13T10:34:12.619Z,6.3
2022-09-13T10:35:20.929Z,6.3
2022-09-13T10:36:50.972Z,5.9
2022-09-13T10:37:37.789Z,5.9
2022-09-13T10:38:46.300Z,5.9
2022-09-13T10:39:54.706Z,6.7
2022-09-13T10:41:03.019Z,6.7
2022-09-13T10:42:11.351Z,6.7
2022-09-13T10:43:19.889Z,5.1
2022-09-13T10:44:28.246Z,5.1
2022-09-13T10:45:36.609Z,5.1
2022-09-13T10:46:45.085Z,5
2022-09-13T10:47:53.417Z,5
2022-09-13T10:49:01.793Z,5
2022-09-13T10:50:10.321Z,4.7
2022-09-13T10:51:18.661Z,4.7
2022-09-13T10:52:27.009Z,4.7
2022-09-13T10:53:35.576Z,4.8
2022-09-13T10:54:43.912Z,4.8
2022-09-13T10:55:52.244Z,4.8
2022-09-13T10:57:00.778Z,4.6
2022-09-13T10:58:09.121Z,4.6
2022-09-13T10:59:17.458Z,4.6
2022-09-13T11:00:26.123Z,4.7
2022-09-13T11:01:38.247Z,4.7
2022-09-13T11:02:42.672Z,4.7
2022-09-13T11:03:51.236Z,4.2
2022-09-13T11:04:59.581Z,4.2
2022-09-13T11:06:07.919Z,4.2
2022-09-13T11:07:16.482Z,4.4
2022-09-13T11:08:24.816Z,4.4
2022-09-13T11:09:33.156Z,4.4
2022-09-13T11:10:41.717Z,3.6
2022-09-13T11:11:50.061Z,3.6
2022-09-13T11:12:58.395Z,3.6
2022-09-13T11:14:06.939Z,3.6
2022-09-13T11:15:15.289Z,3.6
2022-09-13T11:16:23.779Z,3.6
2022-09-13T11:17:32.193Z,3.8
2022-09-13T11:18:40.515Z,3.8
2022-09-13T11:19:48.900Z,3.8
2022-09-13T11:20:57.462Z,5
2022-09-13T11:22:05.799Z,5
2022-09-13T11:23:14.132Z,5
2022-09-13T11:24:22.668Z,3.8
2022-09-13T11:25:31.023Z,3.8
2022-09-13T11:26:39.369Z,3.8
2022-09-13T11:27:47.916Z,3.9
2022-09-13T11:28:56.246Z,3.9
2022-09-13T11:30:04.566Z,3.9
2022-09-13T11:31:13.095Z,3
2022-09-13T11:32:21.459Z,3
2022-09-13T11:33:29.767Z,3
2022-09-13T11:34:38.301Z,3.7
2022-09-13T11:35:46.656Z,3.7
2022-09-13T11:36:54.993Z,3.7
2022-09-13T11:38:03.558Z,3
2022-09-13T11:39:11.897Z,3
2022-09-13T11:40:20.275Z,3
2022-09-13T11:41:28.798Z,3.3
2022-09-13T11:42:37.144Z,3.3
2022-09-13T11:43:45.491Z,3.3
2022-09-13T11:44:54.017Z,2.8
2022-09-13T11:46:02.368Z,2.8
2022-09-13T11:47:10.677Z,2.8
2022-09-13T11:48:19.331Z,2.5
2022-09-13T11:49:27.558Z,2.5
2022-09-13T11:50:35.926Z,2.5
2022-09-13T11:51:44.572Z,3.3
2022-09-13T11:52:53.027Z,3.3
2022-09-13T11:54:01.401Z,3.3
2022-09-13T11:55:09.956Z,2.9
2022-09-13T11:56:18.299Z,2.9
2022-09-13T11:57:26.643Z,2.9
2022-09-13T11:58:35.177Z,3.1
2022-09-13T11:59:43.505Z,3.1
2022-09-13T12:00:51.845Z,3.1
2022-09-13T12:02:00.501Z,3.4
2022-09-13T12:03:08.929Z,3.4
2022-09-13T12:04:17.110Z,3.4
2022-09-13T12:05:25.646Z,4.5
2022-09-13T12:06:34.007Z,4.5
2022-09-13T12:07:42.357Z,4.5
2022-09-13T12:08:50.916Z,4.4
2022-09-13T12:09:59.260Z,4.4
2022-09-13T12:11:07.604Z,4.4
2022-09-13T12:12:16.167Z,3.9
2022-09-13T12:13:24.520Z,3.9
2022-09-13T12:14:32.858Z,3.9
2022-09-13T12:15:41.399Z,4.2
2022-09-13T12:16:49.833Z,4.2
2022-09-13T12:17:58.097Z,4.2
2022-09-13T12:19:06.645Z,3.7
2022-09-13T12:20:15.001Z,3.7
2022-09-13T12:21:23.301Z,3.7
2022-09-13T12:22:31.856Z,3.8
2022-09-13T12:23:40.205Z,3.8
2022-09-13T12:24:48.535Z,3.8
2022-09-13T12:25:57.077Z,4.3
2022-09-13T12:27:05.430Z,4.3
2022-09-13T12:28:13.768Z,4.3
2022-09-13T12:29:22.327Z,4
2022-09-13T12:30:30.666Z,4
2022-09-13T12:31:46.874Z,4
2022-09-13T12:33:03.947Z,4.5
2022-09-13T12:34:12.273Z,4.5
2022-09-13T12:35:20.649Z,4.5
2022-09-13T12:36:35.446Z,5.1
2022-09-13T12:37:44.041Z,5.1
2022-09-13T12:38:52.385Z,5.1
2022-09-13T12:40:00.983Z,4.4
2022-09-13T12:41:09.281Z,4.4
2022-09-13T12:42:17.626Z,4.4
2022-09-13T12:43:26.168Z,4.3
2022-09-13T12:44:34.479Z,4.3
2022-09-13T12:45:42.862Z,4.3
2022-09-13T12:46:51.337Z,3
2022-09-13T12:47:59.680Z,3
2022-09-13T12:49:08.004Z,3
2022-09-13T12:51:24.920Z,2.8
2022-09-13T12:52:33.249Z,2.8
2022-09-13T12:53:42.642Z,3.5
2022-09-13T12:54:50.990Z,3.5
2022-09-13T12:55:59.365Z,3.5
2022-09-13T12:57:07.924Z,3.4
2022-09-13T12:58:16.254Z,3.4
2022-09-13T12:59:24.586Z,3.4
2022-09-13T13:00:33.238Z,3.4
2022-09-13T13:01:41.511Z,3.4
2022-09-13T13:02:53.806Z,3.4
2022-09-13T13:03:58.299Z,4.7
2022-09-13T13:05:06.640Z,4.7
2022-09-13T13:06:14.975Z,4.7
2022-09-13T13:07:23.620Z,3.9
2022-09-13T13:08:31.824Z,3.9
2022-09-13T13:09:40.150Z,3.9
2022-09-13T13:10:48.692Z,3
2022-09-13T13:11:57.073Z,3
2022-09-13T13:13:05.402Z,3
2022-09-13T13:14:13.940Z,3.9
2022-09-13T13:15:22.270Z,3.9
2022-09-13T13:16:30.648Z,3.9
2022-09-13T13:17:39.146Z,3.2
2022-09-13T13:18:47.484Z,3.2
2022-09-13T13:19:55.813Z,3.2
2022-09-13T13:21:04.345Z,2.9
2022-09-13T13:22:12.674Z,2.9
2022-09-13T13:23:21.124Z,2.9
2022-09-13T13:24:29.537Z,3.3
2022-09-13T13:25:37.860Z,3.3
2022-09-13T13:26:46.186Z,3.3
2022-09-13T13:27:54.717Z,2.7
2022-09-13T13:29:03.049Z,2.7
2022-09-13T13:30:11.393Z,2.7
2022-09-13T13:31:20.006Z,3.2
2022-09-13T13:32:28.292Z,3.2
2022-09-13T13:33:36.609Z,3.2
2022-09-13T13:34:45.169Z,10.9
2022-09-13T13:35:53.489Z,10.9
2022-09-13T13:37:01.817Z,10.9
2022-09-13T13:38:10.358Z,3.3
2022-09-13T13:39:18.707Z,3.3
2022-09-13T13:40:27.070Z,3.3
2022-09-13T13:41:35.593Z,3.2
2022-09-13T13:42:43.904Z,3.2
2022-09-13T13:43:52.223Z,3.2
2022-09-13T13:45:00.754Z,3.2
2022-09-13T13:46:09.117Z,3.2
2022-09-13T13:47:17.459Z,3.2
2022-09-13T13:48:25.994Z,3.8
2022-09-13T13:49:34.324Z,3.8
2022-09-13T13:50:42.641Z,3.8
2022-09-13T13:51:51.193Z,3.4
2022-09-13T13:52:59.538Z,3.4
2022-09-13T13:54:07.866Z,3.4
2022-09-13T13:55:16.405Z,4.2
2022-09-13T13:56:24.717Z,4.2
2022-09-13T13:57:33.064Z,4.2
2022-09-13T13:58:41.620Z,3.2
2022-09-13T13:59:49.982Z,3.2
2022-09-13T14:00:58.343Z,3.2
2022-09-13T14:02:06.889Z,3.9
2022-09-13T14:03:15.222Z,3.9
2022-09-13T14:04:23.660Z,3.9
2022-09-13T14:05:32.119Z,4.9
2022-09-13T14:06:40.447Z,4.9
2022-09-13T14:07:48.776Z,4.9
2022-09-13T14:08:58.346Z,4.5
2022-09-13T14:10:05.667Z,4.5
2022-09-13T14:11:14.033Z,4.5
2022-09-13T14:12:22.556Z,4.1
2022-09-13T14:13:30.887Z,4.1
2022-09-13T14:14:39.205Z,4.1
2022-09-13T14:15:47.758Z,4.5
2022-09-13T14:16:56.131Z,4.5
2022-09-13T14:18:04.403Z,4.5
2022-09-13T14:19:12.930Z,3.6
2022-09-13T14:20:21.265Z,3.6
2022-09-13T14:21:29.595Z,3.6
2022-09-13T14:22:38.153Z,3.7
2022-09-13T14:23:46.469Z,3.7
2022-09-13T14:24:54.792Z,3.7
2022-09-13T14:26:03.314Z,3.7
2022-09-13T14:27:11.714Z,3.7
2022-09-13T14:28:19.996Z,3.7
2022-09-13T14:29:28.514Z,3.6
2022-09-13T15:04:31.901Z,0
2022-09-13T15:05:40.082Z,0
2022-09-13T15:06:48.434Z,0
2022-09-13T15:07:56.967Z,5.2
2022-09-13T15:09:05.288Z,5.2
2022-09-13T15:10:13.608Z,5.2
2022-09-13T15:11:22.152Z,5.9
2022-09-13T15:12:30.493Z,5.9
2022-09-13T15:13:38.846Z,5.9
2022-09-13T15:14:47.371Z,5.5
2022-09-13T15:15:55.728Z,5.5
2022-09-13T15:17:04.050Z,5.5
2022-09-13T15:18:12.620Z,6
2022-09-13T15:19:20.942Z,6
2022-09-13T15:20:29.402Z,6
2022-09-13T15:21:37.829Z,4.3
2022-09-13T15:22:46.146Z,4.3
2022-09-13T15:23:54.482Z,4.3
2022-09-13T15:25:03.045Z,4.6
2022-09-13T15:26:11.405Z,4.6
2022-09-13T15:27:19.728Z,4.6
2022-09-13T15:28:28.243Z,5
2022-09-13T15:29:36.613Z,5
2022-09-13T15:30:44.969Z,5
2022-09-13T15:31:53.571Z,4.4
2022-09-13T15:33:01.854Z,4.4
2022-09-13T15:34:10.181Z,4.4
2022-09-13T15:35:18.783Z,4.5
2022-09-13T15:36:27.132Z,4.5
2022-09-13T15:37:35.428Z,4.5
2022-09-13T15:38:43.963Z,4.6
2022-09-13T15:39:52.508Z,4.6
2022-09-13T15:41:00.854Z,4.6
2022-09-13T15:42:09.388Z,4.3
2022-09-13T15:43:17.751Z,4.3
2022-09-13T15:44:26.065Z,4.3
2022-09-13T15:45:34.603Z,7.7
2022-09-13T15:46:42.999Z,7.7
2022-09-13T15:47:51.288Z,7.7
2022-09-13T15:48:59.823Z,4.8
2022-09-13T15:50:08.144Z,4.8
2022-09-13T15:51:16.458Z,4.8
2022-09-13T15:52:25.208Z,5.1
2022-09-13T15:53:33.406Z,5.1
2022-09-13T15:54:41.745Z,5.1
2022-09-13T15:55:50.300Z,6.9
2022-09-13T15:56:58.670Z,6.9
2022-09-13T15:58:07.032Z,6.9
2022-09-13T15:59:15.544Z,6.2
2022-09-13T16:00:23.886Z,6.2
2022-09-13T16:01:32.227Z,6.2
2022-09-13T16:02:40.716Z,8.6
2022-09-13T16:03:49.051Z,8.6
2022-09-13T16:04:57.382Z,8.6
2022-09-13T16:06:05.902Z,7.4
2022-09-13T16:07:14.225Z,7.4
2022-09-13T16:08:22.552Z,7.4
2022-09-13T16:09:31.066Z,5.4
2022-09-13T16:10:39.411Z,5.4
2022-09-13T16:11:47.736Z,5.4
2022-09-13T16:12:56.279Z,5.4
2022-09-13T16:14:04.622Z,5.4
2022-09-13T16:15:12.968Z,5.4
2022-09-13T16:16:21.532Z,7.1
2022-09-13T16:17:29.885Z,7.1